Provo, UT (84601)

1:00 PM MST on January 27, 2015 (GMT -0700)
Grandview near Westridge Elementary School | Change Station
CLOSE
Current Station
Personal Weather Station
Location: Provo, UT
Elevation: 4678 ft
Nearby Weather Stations

Elev 4678 ft 40.26 °N, 111.68 °W | Updated 10 seconds ago

Mostly Cloudy
Mostly Cloudy
53.1 °F
Feels Like 53.1 °F
N
0.2
Wind Variable Wind from WNW
Gusts 2.5 mph

Today
High -- | Low -- °F
--% Chance of Precip.
Yesterday
High -- | Low -- °F
Precip. -- in
7:40 AM 5:39 PM
First Quarter, 57% visible
Pressure 30.21 in
Visibility 10.0 miles
Clouds Mostly Cloudy 7000 ft
Dew Point 34 °F
Humidity 48%
Rainfall 0.00 in
Snow Depth Not available.
UV 3.0 out of 12
Pollen .40 out of 12
Air Quality Not available.
Flu Activity Not available.
METAR KPVU 271952Z VRB03KT 10SM BKN070 09/01 A3021

More Conditions Fewer Conditions

Pressure 30.21 in
Visibility 10.0 miles
Clouds Mostly Cloudy 7000 ft
Dew Point 34 °F
Humidity 48%
Rainfall 0.00 in
Snow Depth Not available.
UV 3.0 out of 12
Pollen .40 out of 12
Air Quality Not available.
Flu Activity Not available.
METAR KPVU 271952Z VRB03KT 10SM BKN070 09/01 A3021

More Conditions Fewer Conditions

10-Day Weather Forecast

Almanac

Astronomy

Jan. 27, 2015 Rise Set
Actual Time
Civil Twilight
Nautical Twilight
Astronomical Twilight
Moon
Length of Visible Light
Length of Day
Tomorrow will be .
, % of the Moon is Illuminated

Today's Extremes

State Highs State Lows

Community

WunderPhotos

Upload Photos

1,790,874 photos uploaded!

WunderBlogs® & News

Nearby

Air Quality

  Air Quality AQ Index Pollutant
Not available.

Snow Depth

Station Depth Elevation

Earthquake Activity

City Distance Mag. Time & Date
Minimum magnitude displayed is 2.5.

Coastal Water Temperatures

Place Temperature

Nearby Weather Stations